sensor_id;sensor_type;location;lat;lon;timestamp;pressure;altitude;pressure_sealevel;temperature;humidity
33697;BME280;20031;43.416;23.232;2022-10-16T00:00:44;100829.22;;;9.09;82.68
33697;BME280;20031;43.416;23.232;2022-10-16T00:03:09;100815.56;;;9.07;82.30
33697;BME280;20031;43.416;23.232;2022-10-16T00:05:43;100823.47;;;9.05;82.45
33697;BME280;20031;43.416;23.232;2022-10-16T00:08:12;100825.94;;;9.07;82.36
33697;BME280;20031;43.416;23.232;2022-10-16T00:10:38;100831.97;;;9.07;82.64
33697;BME280;20031;43.416;23.232;2022-10-16T00:13:04;100836.22;;;9.08;82.67
33697;BME280;20031;43.416;23.232;2022-10-16T00:15:33;100841.66;;;9.05;82.57
33697;BME280;20031;43.416;23.232;2022-10-16T00:18:01;100842.03;;;9.01;81.81
33697;BME280;20031;43.416;23.232;2022-10-16T00:20:26;100843.63;;;8.92;82.04
33697;BME280;20031;43.416;23.232;2022-10-16T00:22:52;100842.78;;;8.82;82.21
33697;BME280;20031;43.416;23.232;2022-10-16T00:25:17;100835.47;;;8.76;82.08
33697;BME280;20031;43.416;23.232;2022-10-16T00:27:43;100845.44;;;8.71;81.87
33697;BME280;20031;43.416;23.232;2022-10-16T00:30:08;100853.50;;;8.68;82.28
33697;BME280;20031;43.416;23.232;2022-10-16T00:32:34;100853.63;;;8.67;82.49
33697;BME280;20031;43.416;23.232;2022-10-16T00:34:59;100854.16;;;8.70;82.69
33697;BME280;20031;43.416;23.232;2022-10-16T00:37:25;100856.91;;;8.69;82.73
33697;BME280;20031;43.416;23.232;2022-10-16T00:39:50;100854.69;;;8.64;82.25
33697;BME280;20031;43.416;23.232;2022-10-16T00:42:17;100849.03;;;8.60;82.62
33697;BME280;20031;43.416;23.232;2022-10-16T00:44:53;100851.63;;;8.60;82.47
33697;BME280;20031;43.416;23.232;2022-10-16T00:47:37;100846.56;;;8.58;82.36
33697;BME280;20031;43.416;23.232;2022-10-16T00:50:10;100847.41;;;8.59;82.42
33697;BME280;20031;43.416;23.232;2022-10-16T00:52:39;100843.72;;;8.61;82.60
33697;BME280;20031;43.416;23.232;2022-10-16T00:55:08;100845.63;;;8.59;82.56
33697;BME280;20031;43.416;23.232;2022-10-16T00:57:34;100855.19;;;8.59;82.63
33697;BME280;20031;43.416;23.232;2022-10-16T01:00:00;100851.41;;;8.63;82.58
33697;BME280;20031;43.416;23.232;2022-10-16T01:02:26;100848.91;;;8.61;82.92
33697;BME280;20031;43.416;23.232;2022-10-16T01:04:53;100848.09;;;8.61;82.62
33697;BME280;20031;43.416;23.232;2022-10-16T01:07:22;100852.59;;;8.59;82.39
33697;BME280;20031;43.416;23.232;2022-10-16T01:17:58;100855.75;;;8.62;82.78
33697;BME280;20031;43.416;23.232;2022-10-16T01:20:29;100848.69;;;8.64;82.27
33697;BME280;20031;43.416;23.232;2022-10-16T01:28:15;100852.59;;;8.59;82.56
33697;BME280;20031;43.416;23.232;2022-10-16T01:30:44;100857.59;;;8.51;82.27
33697;BME280;20031;43.416;23.232;2022-10-16T01:33:17;100852.41;;;8.51;82.67
33697;BME280;20031;43.416;23.232;2022-10-16T01:35:52;100857.84;;;8.48;82.73
33697;BME280;20031;43.416;23.232;2022-10-16T01:38:31;100858.34;;;8.42;82.45
33697;BME280;20031;43.416;23.232;2022-10-16T01:41:01;100859.78;;;8.35;82.45
33697;BME280;20031;43.416;23.232;2022-10-16T01:43:33;100855.53;;;8.34;82.42
33697;BME280;20031;43.416;23.232;2022-10-16T01:46:01;100853.78;;;8.34;82.58
33697;BME280;20031;43.416;23.232;2022-10-16T01:48:29;100865.25;;;8.32;82.26
33697;BME280;20031;43.416;23.232;2022-10-16T01:51:05;100857.72;;;8.29;82.22
33697;BME280;20031;43.416;23.232;2022-10-16T01:53:33;100857.72;;;8.29;82.53
33697;BME280;20031;43.416;23.232;2022-10-16T01:55:59;100852.25;;;8.32;82.38
33697;BME280;20031;43.416;23.232;2022-10-16T01:58:27;100853.78;;;8.34;82.68
33697;BME280;20031;43.416;23.232;2022-10-16T02:00:59;100864.47;;;8.41;82.65
33697;BME280;20031;43.416;23.232;2022-10-16T02:03:26;100858.72;;;8.37;82.11
33697;BME280;20031;43.416;23.232;2022-10-16T02:05:56;100864.16;;;8.34;82.18
33697;BME280;20031;43.416;23.232;2022-10-16T02:08:25;100867.56;;;8.35;82.15
33697;BME280;20031;43.416;23.232;2022-10-16T02:10:54;100878.91;;;8.34;82.07
33697;BME280;20031;43.416;23.232;2022-10-16T02:13:27;100882.25;;;8.25;81.92
33697;BME280;20031;43.416;23.232;2022-10-16T02:15:54;100885.47;;;8.17;82.14
33697;BME280;20031;43.416;23.232;2022-10-16T02:18:20;100885.84;;;8.13;82.13
33697;BME280;20031;43.416;23.232;2022-10-16T02:23:51;100887.69;;;8.00;82.06
33697;BME280;20031;43.416;23.232;2022-10-16T02:26:27;100901.03;;;7.96;82.25
33697;BME280;20031;43.416;23.232;2022-10-16T02:29:00;100899.53;;;7.93;81.91
33697;BME280;20031;43.416;23.232;2022-10-16T02:31:28;100900.34;;;7.94;81.95
33697;BME280;20031;43.416;23.232;2022-10-16T02:33:58;100895.53;;;7.89;82.14
33697;BME280;20031;43.416;23.232;2022-10-16T02:36:25;100897.88;;;7.81;82.02
33697;BME280;20031;43.416;23.232;2022-10-16T02:38:52;100900.84;;;7.77;81.93
33697;BME280;20031;43.416;23.232;2022-10-16T02:41:19;100894.72;;;7.78;82.65
33697;BME280;20031;43.416;23.232;2022-10-16T02:43:45;100897.31;;;7.78;82.28
33697;BME280;20031;43.416;23.232;2022-10-16T02:46:11;100898.94;;;7.79;82.24
33697;BME280;20031;43.416;23.232;2022-10-16T02:48:36;100904.72;;;7.82;82.95
33697;BME280;20031;43.416;23.232;2022-10-16T02:51:02;100905.78;;;7.80;82.22
33697;BME280;20031;43.416;23.232;2022-10-16T02:53:27;100911.34;;;7.75;82.47
33697;BME280;20031;43.416;23.232;2022-10-16T02:55:52;100922.75;;;7.73;82.42
33697;BME280;20031;43.416;23.232;2022-10-16T02:58:18;100908.25;;;7.70;82.52
33697;BME280;20031;43.416;23.232;2022-10-16T03:00:44;100911.47;;;7.74;82.84
33697;BME280;20031;43.416;23.232;2022-10-16T03:03:09;100914.28;;;7.82;82.58
33697;BME280;20031;43.416;23.232;2022-10-16T03:05:35;100911.34;;;7.86;82.69
33697;BME280;20031;43.416;23.232;2022-10-16T03:08:00;100914.75;;;7.87;82.34
33697;BME280;20031;43.416;23.232;2022-10-16T03:10:26;100912.97;;;7.87;82.24
33697;BME280;20031;43.416;23.232;2022-10-16T03:12:51;100916.63;;;7.85;82.45
33697;BME280;20031;43.416;23.232;2022-10-16T03:15:17;100919.09;;;7.86;82.35
33697;BME280;20031;43.416;23.232;2022-10-16T03:17:42;100921.81;;;7.85;81.67
33697;BME280;20031;43.416;23.232;2022-10-16T03:20:08;100924.66;;;7.82;81.48
33697;BME280;20031;43.416;23.232;2022-10-16T03:22:34;100927.81;;;7.74;81.78
33697;BME280;20031;43.416;23.232;2022-10-16T03:24:59;100928.78;;;7.73;82.07
33697;BME280;20031;43.416;23.232;2022-10-16T03:27:24;100923.59;;;7.73;81.74
33697;BME280;20031;43.416;23.232;2022-10-16T03:29:50;100933.50;;;7.68;81.60
33697;BME280;20031;43.416;23.232;2022-10-16T03:32:15;100934.53;;;7.66;81.87
33697;BME280;20031;43.416;23.232;2022-10-16T03:34:41;100930.44;;;7.63;82.04
33697;BME280;20031;43.416;23.232;2022-10-16T03:37:06;100935.28;;;7.68;81.61
33697;BME280;20031;43.416;23.232;2022-10-16T03:39:32;100927.13;;;7.61;81.31
33697;BME280;20031;43.416;23.232;2022-10-16T03:41:57;100935.50;;;7.65;82.13
33697;BME280;20031;43.416;23.232;2022-10-16T03:44:23;100938.56;;;7.59;81.75
33697;BME280;20031;43.416;23.232;2022-10-16T03:46:48;100928.44;;;7.56;82.00
33697;BME280;20031;43.416;23.232;2022-10-16T03:49:13;100941.63;;;7.53;81.83
33697;BME280;20031;43.416;23.232;2022-10-16T03:51:39;100940.31;;;7.48;81.52
33697;BME280;20031;43.416;23.232;2022-10-16T03:54:04;100940.78;;;7.42;81.46
33697;BME280;20031;43.416;23.232;2022-10-16T03:56:30;100939.38;;;7.38;82.23
33697;BME280;20031;43.416;23.232;2022-10-16T03:58:55;100946.56;;;7.34;81.79
33697;BME280;20031;43.416;23.232;2022-10-16T04:01:20;100944.22;;;7.31;81.99
33697;BME280;20031;43.416;23.232;2022-10-16T04:03:46;100943.41;;;7.31;81.89
33697;BME280;20031;43.416;23.232;2022-10-16T04:06:11;100944.22;;;7.31;82.14
33697;BME280;20031;43.416;23.232;2022-10-16T04:08:37;100944.78;;;7.35;81.83
33697;BME280;20031;43.416;23.232;2022-10-16T04:11:04;100957.88;;;7.33;82.22
33697;BME280;20031;43.416;23.232;2022-10-16T04:13:30;100949.16;;;7.34;81.94
33697;BME280;20031;43.416;23.232;2022-10-16T04:15:55;100954.69;;;7.30;82.07
33697;BME280;20031;43.416;23.232;2022-10-16T04:18:21;100962.47;;;7.30;82.24
33697;BME280;20031;43.416;23.232;2022-10-16T04:20:46;100963.28;;;7.30;82.61
33697;BME280;20031;43.416;23.232;2022-10-16T04:23:11;100967.66;;;7.30;82.37
33697;BME280;20031;43.416;23.232;2022-10-16T04:25:37;100961.19;;;7.35;82.36
33697;BME280;20031;43.416;23.232;2022-10-16T04:28:02;100963.41;;;7.40;82.86
33697;BME280;20031;43.416;23.232;2022-10-16T04:30:28;100963.19;;;7.43;82.14
33697;BME280;20031;43.416;23.232;2022-10-16T04:32:53;100969.41;;;7.40;82.48
33697;BME280;20031;43.416;23.232;2022-10-16T04:35:20;100969.28;;;7.42;82.32
33697;BME280;20031;43.416;23.232;2022-10-16T04:37:45;100970.03;;;7.44;82.24
33697;BME280;20031;43.416;23.232;2022-10-16T04:40:11;100970.72;;;7.46;82.42
33697;BME280;20031;43.416;23.232;2022-10-16T04:42:37;100969.06;;;7.45;82.21
33697;BME280;20031;43.416;23.232;2022-10-16T04:45:04;100968.81;;;7.48;82.43
33697;BME280;20031;43.416;23.232;2022-10-16T04:47:30;100967.66;;;7.52;82.30
33697;BME280;20031;43.416;23.232;2022-10-16T04:49:55;100972.84;;;7.52;82.26
33697;BME280;20031;43.416;23.232;2022-10-16T04:52:21;100968.25;;;7.55;82.31
33697;BME280;20031;43.416;23.232;2022-10-16T04:54:49;100973.56;;;7.54;81.90
33697;BME280;20031;43.416;23.232;2022-10-16T04:57:15;100976.16;;;7.54;81.93
33697;BME280;20031;43.416;23.232;2022-10-16T04:59:41;100981.34;;;7.54;81.61
33697;BME280;20031;43.416;23.232;2022-10-16T05:02:06;100982.03;;;7.56;81.74
33697;BME280;20031;43.416;23.232;2022-10-16T05:04:31;100979.22;;;7.59;82.11
33697;BME280;20031;43.416;23.232;2022-10-16T05:06:57;100978.16;;;7.61;81.87
33697;BME280;20031;43.416;23.232;2022-10-16T05:09:22;100983.69;;;7.67;81.68
33697;BME280;20031;43.416;23.232;2022-10-16T05:11:48;100984.88;;;7.74;81.64
33697;BME280;20031;43.416;23.232;2022-10-16T05:14:13;100992.06;;;7.82;81.46
33697;BME280;20031;43.416;23.232;2022-10-16T05:16:38;100998.78;;;7.84;80.88
33697;BME280;20031;43.416;23.232;2022-10-16T05:19:04;101003.84;;;7.86;81.14
33697;BME280;20031;43.416;23.232;2022-10-16T05:21:29;101002.66;;;7.90;80.90
33697;BME280;20031;43.416;23.232;2022-10-16T05:23:55;101007.00;;;8.00;80.85
33697;BME280;20031;43.416;23.232;2022-10-16T05:26:20;101009.59;;;8.11;80.23
33697;BME280;20031;43.416;23.232;2022-10-16T05:28:46;101016.69;;;8.20;80.67
33697;BME280;20031;43.416;23.232;2022-10-16T05:31:11;101022.22;;;8.26;80.13
33697;BME280;20031;43.416;23.232;2022-10-16T05:33:37;101020.22;;;8.30;79.76
33697;BME280;20031;43.416;23.232;2022-10-16T05:36:07;101021.97;;;8.40;79.31
33697;BME280;20031;43.416;23.232;2022-10-16T05:38:36;101029.25;;;8.57;79.55
33697;BME280;20031;43.416;23.232;2022-10-16T05:41:03;101030.50;;;8.73;79.20
33697;BME280;20031;43.416;23.232;2022-10-16T05:43:30;101027.75;;;8.86;79.21
33697;BME280;20031;43.416;23.232;2022-10-16T05:46:02;101028.41;;;8.99;78.58
33697;BME280;20031;43.416;23.232;2022-10-16T05:48:28;101032.16;;;9.06;78.27
33697;BME280;20031;43.416;23.232;2022-10-16T05:51:03;101039.91;;;9.16;77.68
33697;BME280;20031;43.416;23.232;2022-10-16T05:53:31;101040.19;;;9.23;77.37
33697;BME280;20031;43.416;23.232;2022-10-16T05:55:57;101040.97;;;9.34;76.89
33697;BME280;20031;43.416;23.232;2022-10-16T05:58:24;101041.72;;;9.46;77.16
33697;BME280;20031;43.416;23.232;2022-10-16T06:00:58;101053.00;;;9.56;76.55
33697;BME280;20031;43.416;23.232;2022-10-16T06:03:24;101054.16;;;9.63;76.25
33697;BME280;20031;43.416;23.232;2022-10-16T06:05:50;101056.84;;;9.81;76.07
33697;BME280;20031;43.416;23.232;2022-10-16T06:08:15;101050.06;;;10.10;75.90
33697;BME280;20031;43.416;23.232;2022-10-16T06:10:42;101052.59;;;10.30;75.48
33697;BME280;20031;43.416;23.232;2022-10-16T06:13:09;101055.75;;;10.43;74.64
33697;BME280;20031;43.416;23.232;2022-10-16T06:15:34;101059.53;;;10.60;74.71
33697;BME280;20031;43.416;23.232;2022-10-16T06:17:59;101058.72;;;10.87;74.30
33697;BME280;20031;43.416;23.232;2022-10-16T06:20:26;101062.19;;;11.07;73.78
33697;BME280;20031;43.416;23.232;2022-10-16T06:22:51;101060.94;;;11.11;72.73
33697;BME280;20031;43.416;23.232;2022-10-16T06:25:17;101059.59;;;11.16;72.32
33697;BME280;20031;43.416;23.232;2022-10-16T06:27:42;101069.72;;;11.28;72.24
33697;BME280;20031;43.416;23.232;2022-10-16T06:30:08;101066.69;;;11.42;72.01
33697;BME280;20031;43.416;23.232;2022-10-16T06:32:33;101061.03;;;11.66;72.21
33697;BME280;20031;43.416;23.232;2022-10-16T06:34:59;101066.09;;;11.76;71.17
33697;BME280;20031;43.416;23.232;2022-10-16T06:37:24;101070.75;;;11.82;70.50
33697;BME280;20031;43.416;23.232;2022-10-16T06:39:50;101063.84;;;11.91;70.39
33697;BME280;20031;43.416;23.232;2022-10-16T06:42:18;101068.91;;;12.02;70.17
33697;BME280;20031;43.416;23.232;2022-10-16T06:44:43;101075.69;;;12.31;70.49
33697;BME280;20031;43.416;23.232;2022-10-16T06:47:09;101074.53;;;12.60;69.67
33697;BME280;20031;43.416;23.232;2022-10-16T06:49:34;101083.75;;;12.81;69.44
33697;BME280;20031;43.416;23.232;2022-10-16T06:52:00;101083.22;;;13.05;69.31
33697;BME280;20031;43.416;23.232;2022-10-16T06:54:26;101076.03;;;13.24;68.60
33697;BME280;20031;43.416;23.232;2022-10-16T06:56:52;101083.06;;;13.41;67.90
33697;BME280;20031;43.416;23.232;2022-10-16T06:59:22;101086.09;;;13.54;68.05
33697;BME280;20031;43.416;23.232;2022-10-16T07:01:48;101088.25;;;13.76;67.28
33697;BME280;20031;43.416;23.232;2022-10-16T07:04:13;101090.00;;;13.92;66.98
33697;BME280;20031;43.416;23.232;2022-10-16T07:06:39;101090.13;;;14.08;66.09
33697;BME280;20031;43.416;23.232;2022-10-16T07:09:07;101098.38;;;14.21;65.74
33697;BME280;20031;43.416;23.232;2022-10-16T07:11:34;101102.72;;;14.38;65.07
33697;BME280;20031;43.416;23.232;2022-10-16T07:14:01;101097.91;;;14.26;64.00
33697;BME280;20031;43.416;23.232;2022-10-16T07:16:28;101100.38;;;14.27;64.99
33697;BME280;20031;43.416;23.232;2022-10-16T07:18:55;101097.97;;;14.41;64.36
33697;BME280;20031;43.416;23.232;2022-10-16T07:21:26;101099.69;;;14.58;64.39
33697;BME280;20031;43.416;23.232;2022-10-16T07:23:57;101099.25;;;14.71;64.62
33697;BME280;20031;43.416;23.232;2022-10-16T07:26:24;101106.19;;;14.87;64.09
33697;BME280;20031;43.416;23.232;2022-10-16T07:28:50;101105.72;;;15.08;63.40
33697;BME280;20031;43.416;23.232;2022-10-16T07:31:17;101102.59;;;15.12;63.17
33697;BME280;20031;43.416;23.232;2022-10-16T07:33:44;101107.59;;;15.23;62.52
33697;BME280;20031;43.416;23.232;2022-10-16T07:36:11;101106.13;;;15.29;62.60
33697;BME280;20031;43.416;23.232;2022-10-16T07:38:37;101103.66;;;15.43;62.55
33697;BME280;20031;43.416;23.232;2022-10-16T07:41:05;101103.19;;;15.55;62.74
33697;BME280;20031;43.416;23.232;2022-10-16T07:43:32;101101.22;;;15.65;62.55
33697;BME280;20031;43.416;23.232;2022-10-16T07:45:58;101089.06;;;15.72;61.64
33697;BME280;20031;43.416;23.232;2022-10-16T07:48:25;101087.72;;;15.76;61.77
33697;BME280;20031;43.416;23.232;2022-10-16T07:50:51;101096.41;;;15.84;60.96
33697;BME280;20031;43.416;23.232;2022-10-16T07:53:17;101099.38;;;15.82;61.34
33697;BME280;20031;43.416;23.232;2022-10-16T07:55:42;101099.34;;;15.97;61.41
33697;BME280;20031;43.416;23.232;2022-10-16T07:58:08;101100.09;;;16.22;61.39
33697;BME280;20031;43.416;23.232;2022-10-16T08:00:36;101101.34;;;16.49;60.76
33697;BME280;20031;43.416;23.232;2022-10-16T08:03:01;101096.56;;;16.53;59.66
33697;BME280;20031;43.416;23.232;2022-10-16T08:05:28;101099.97;;;16.69;60.29
33697;BME280;20031;43.416;23.232;2022-10-16T08:07:54;101092.81;;;16.86;59.19
33697;BME280;20031;43.416;23.232;2022-10-16T08:10:21;101093.47;;;17.10;59.01
33697;BME280;20031;43.416;23.232;2022-10-16T08:12:47;101094.91;;;17.12;57.61
33697;BME280;20031;43.416;23.232;2022-10-16T08:15:12;101096.03;;;17.26;57.74
33697;BME280;20031;43.416;23.232;2022-10-16T08:17:38;101100.06;;;17.36;56.93
33697;BME280;20031;43.416;23.232;2022-10-16T08:20:04;101097.59;;;17.35;56.11
33697;BME280;20031;43.416;23.232;2022-10-16T08:22:30;101096.03;;;17.26;56.77
33697;BME280;20031;43.416;23.232;2022-10-16T08:24:55;101099.16;;;17.21;56.87
33697;BME280;20031;43.416;23.232;2022-10-16T08:27:21;101097.94;;;17.32;57.14
33697;BME280;20031;43.416;23.232;2022-10-16T08:29:48;101092.91;;;17.44;56.78
33697;BME280;20031;43.416;23.232;2022-10-16T08:32:14;101099.50;;;17.40;56.98
33697;BME280;20031;43.416;23.232;2022-10-16T08:34:40;101099.28;;;17.50;56.56
33697;BME280;20031;43.416;23.232;2022-10-16T08:37:05;101101.88;;;17.58;56.26
33697;BME280;20031;43.416;23.232;2022-10-16T08:39:33;101099.50;;;17.63;56.21
33697;BME280;20031;43.416;23.232;2022-10-16T08:42:07;101099.34;;;17.79;55.84
33697;BME280;20031;43.416;23.232;2022-10-16T08:45:15;101101.38;;;17.91;56.06
33697;BME280;20031;43.416;23.232;2022-10-16T08:47:56;101100.84;;;18.10;55.21
33697;BME280;20031;43.416;23.232;2022-10-16T08:50:30;101097.72;;;18.43;55.04
33697;BME280;20031;43.416;23.232;2022-10-16T08:52:57;101098.28;;;18.74;54.38
33697;BME280;20031;43.416;23.232;2022-10-16T08:55:30;101098.69;;;19.06;53.32
33697;BME280;20031;43.416;23.232;2022-10-16T08:57:58;101102.84;;;19.15;52.07
33697;BME280;20031;43.416;23.232;2022-10-16T09:00:24;101104.44;;;19.09;51.98
33697;BME280;20031;43.416;23.232;2022-10-16T09:05:54;101104.19;;;19.25;51.27
33697;BME280;20031;43.416;23.232;2022-10-16T09:08:57;101099.16;;;19.30;50.45
33697;BME280;20031;43.416;23.232;2022-10-16T09:11:24;101099.16;;;19.30;50.75
33697;BME280;20031;43.416;23.232;2022-10-16T09:16:46;101094.06;;;19.77;49.70
33697;BME280;20031;43.416;23.232;2022-10-16T09:19:24;101096.25;;;19.94;48.68
33697;BME280;20031;43.416;23.232;2022-10-16T09:21:51;101096.66;;;19.91;49.19
33697;BME280;20031;43.416;23.232;2022-10-16T09:24:20;101097.22;;;20.14;49.21
33697;BME280;20031;43.416;23.232;2022-10-16T09:26:47;101093.53;;;20.08;48.02
33697;BME280;20031;43.416;23.232;2022-10-16T09:29:14;101087.47;;;20.14;48.88
33697;BME280;20031;43.416;23.232;2022-10-16T09:31:41;101092.09;;;20.46;47.66
33697;BME280;20031;43.416;23.232;2022-10-16T09:34:17;101094.09;;;20.78;47.02
33697;BME280;20031;43.416;23.232;2022-10-16T09:36:47;101089.88;;;20.90;45.61
33697;BME280;20031;43.416;23.232;2022-10-16T09:39:12;101090.72;;;20.97;45.22
33697;BME280;20031;43.416;23.232;2022-10-16T09:41:41;101081.50;;;20.86;44.58
33697;BME280;20031;43.416;23.232;2022-10-16T09:44:33;101082.69;;;20.77;44.57
33697;BME280;20031;43.416;23.232;2022-10-16T09:47:12;101078.66;;;20.88;45.56
33697;BME280;20031;43.416;23.232;2022-10-16T09:49:50;101085.03;;;21.19;43.45
33697;BME280;20031;43.416;23.232;2022-10-16T09:52:20;101081.22;;;21.41;42.72
33697;BME280;20031;43.416;23.232;2022-10-16T09:57:19;101085.94;;;21.52;41.66
33697;BME280;20031;43.416;23.232;2022-10-16T09:59:57;101073.69;;;21.57;41.39
33697;BME280;20031;43.416;23.232;2022-10-16T10:02:43;101073.69;;;21.63;41.28
33697;BME280;20031;43.416;23.232;2022-10-16T10:05:27;101068.34;;;21.31;40.05
33697;BME280;20031;43.416;23.232;2022-10-16T10:07:58;101064.53;;;21.53;40.28
33697;BME280;20031;43.416;23.232;2022-10-16T10:10:30;101063.50;;;21.54;40.51
33697;BME280;20031;43.416;23.232;2022-10-16T10:12:57;101065.75;;;21.83;40.86
33697;BME280;20031;43.416;23.232;2022-10-16T10:15:23;101063.47;;;21.80;40.19
33697;BME280;20031;43.416;23.232;2022-10-16T10:17:55;101059.41;;;21.84;39.39
33697;BME280;20031;43.416;23.232;2022-10-16T10:20:34;101056.94;;;21.95;39.40
33697;BME280;20031;43.416;23.232;2022-10-16T10:23:21;101051.63;;;22.02;39.40
33697;BME280;20031;43.416;23.232;2022-10-16T10:25:57;101048.72;;;22.09;39.08
33697;BME280;20031;43.416;23.232;2022-10-16T10:28:57;101046.47;;;22.32;39.09
33697;BME280;20031;43.416;23.232;2022-10-16T10:40:15;101038.41;;;22.52;36.72
33697;BME280;20031;43.416;23.232;2022-10-16T10:42:53;101025.69;;;22.60;36.09
33697;BME280;20031;43.416;23.232;2022-10-16T10:45:26;101020.97;;;22.68;36.53
33697;BME280;20031;43.416;23.232;2022-10-16T10:50:55;101030.13;;;22.35;37.04
33697;BME280;20031;43.416;23.232;2022-10-16T10:53:47;101020.94;;;22.25;38.11
33697;BME280;20031;43.416;23.232;2022-10-16T11:07:41;101007.81;;;22.36;37.49
33697;BME280;20031;43.416;23.232;2022-10-16T11:10:20;101007.81;;;22.36;37.56
33697;BME280;20031;43.416;23.232;2022-10-16T11:12:55;101011.56;;;22.09;38.22
33697;BME280;20031;43.416;23.232;2022-10-16T11:15:30;101000.13;;;22.28;38.05
33697;BME280;20031;43.416;23.232;2022-10-16T11:18:13;101005.72;;;22.51;38.00
33697;BME280;20031;43.416;23.232;2022-10-16T11:20:46;101004.59;;;22.71;37.90
33697;BME280;20031;43.416;23.232;2022-10-16T11:23:27;100999.84;;;22.80;37.78
33697;BME280;20031;43.416;23.232;2022-10-16T11:25:58;101007.69;;;22.68;37.92
33697;BME280;20031;43.416;23.232;2022-10-16T11:29:10;101007.38;;;22.52;38.22
33697;BME280;20031;43.416;23.232;2022-10-16T11:31:32;101004.00;;;22.32;39.12
33697;BME280;20031;43.416;23.232;2022-10-16T11:34:22;101008.53;;;22.12;38.88
33697;BME280;20031;43.416;23.232;2022-10-16T11:39:45;101006.34;;;21.90;40.37
33697;BME280;20031;43.416;23.232;2022-10-16T11:42:18;101001.00;;;21.97;40.71
33697;BME280;20031;43.416;23.232;2022-10-16T11:48:15;101006.59;;;21.63;40.52
33697;BME280;20031;43.416;23.232;2022-10-16T11:50:49;100995.56;;;21.40;41.15
33697;BME280;20031;43.416;23.232;2022-10-16T11:55:49;101001.66;;;21.21;40.60
33697;BME280;20031;43.416;23.232;2022-10-16T11:58:37;101001.28;;;21.05;40.61
33697;BME280;20031;43.416;23.232;2022-10-16T12:06:59;100996.59;;;21.01;40.52
33697;BME280;20031;43.416;23.232;2022-10-16T12:09:31;100992.91;;;21.01;40.39
33697;BME280;20031;43.416;23.232;2022-10-16T12:11:57;100992.69;;;20.97;40.08
33697;BME280;20031;43.416;23.232;2022-10-16T12:17:22;100994.09;;;20.80;40.56
33697;BME280;20031;43.416;23.232;2022-10-16T12:22:51;100987.16;;;20.79;40.32
33697;BME280;20031;43.416;23.232;2022-10-16T12:25:36;100995.31;;;20.77;40.62
33697;BME280;20031;43.416;23.232;2022-10-16T12:28:43;100998.69;;;20.65;40.94
33697;BME280;20031;43.416;23.232;2022-10-16T12:31:11;100997.06;;;20.57;40.05
33697;BME280;20031;43.416;23.232;2022-10-16T12:33:40;100988.72;;;20.54;40.41
33697;BME280;20031;43.416;23.232;2022-10-16T12:36:33;100991.13;;;20.49;40.18
33697;BME280;20031;43.416;23.232;2022-10-16T12:38:59;100991.88;;;20.37;40.05
33697;BME280;20031;43.416;23.232;2022-10-16T12:41:28;100984.56;;;20.32;40.31
33697;BME280;20031;43.416;23.232;2022-10-16T12:43:55;100982.09;;;20.31;40.44
33697;BME280;20031;43.416;23.232;2022-10-16T12:46:41;100983.50;;;20.20;39.69
33697;BME280;20031;43.416;23.232;2022-10-16T12:49:22;100982.66;;;20.13;40.18
33697;BME280;20031;43.416;23.232;2022-10-16T12:51:49;100979.78;;;20.08;39.76
33697;BME280;20031;43.416;23.232;2022-10-16T12:54:19;100986.09;;;20.07;40.18
33697;BME280;20031;43.416;23.232;2022-10-16T12:59:44;100979.16;;;20.06;39.74
33697;BME280;20031;43.416;23.232;2022-10-16T13:10:33;100987.41;;;19.91;40.03
33697;BME280;20031;43.416;23.232;2022-10-16T13:21:32;100990.88;;;19.91;39.94
33697;BME280;20031;43.416;23.232;2022-10-16T13:24:06;101001.25;;;19.93;39.38
33697;BME280;20031;43.416;23.232;2022-10-16T13:27:07;101000.91;;;20.02;40.12
33697;BME280;20031;43.416;23.232;2022-10-16T13:29:35;101000.72;;;20.03;39.62
33697;BME280;20031;43.416;23.232;2022-10-16T13:32:07;101005.78;;;19.98;39.53
33697;BME280;20031;43.416;23.232;2022-10-16T13:34:43;101006.59;;;19.99;39.31
33697;BME280;20031;43.416;23.232;2022-10-16T13:37:20;100999.47;;;19.99;39.75
33697;BME280;20031;43.416;23.232;2022-10-16T13:39:46;101007.00;;;20.02;39.80
33697;BME280;20031;43.416;23.232;2022-10-16T13:42:25;101003.13;;;19.98;39.52
33697;BME280;20031;43.416;23.232;2022-10-16T13:44:52;101000.31;;;20.06;40.31
33697;BME280;20031;43.416;23.232;2022-10-16T13:47:28;101004.81;;;20.12;39.72
33697;BME280;20031;43.416;23.232;2022-10-16T13:50:05;101004.06;;;20.18;38.99
33697;BME280;20031;43.416;23.232;2022-10-16T13:52:31;101005.47;;;20.21;38.89
33697;BME280;20031;43.416;23.232;2022-10-16T13:54:57;101014.69;;;20.31;39.07
33697;BME280;20031;43.416;23.232;2022-10-16T13:57:24;101013.06;;;20.30;38.70
33697;BME280;20031;43.416;23.232;2022-10-16T13:59:50;101012.03;;;20.31;38.40
33697;BME280;20031;43.416;23.232;2022-10-16T14:02:24;101008.75;;;20.29;38.00
33697;BME280;20031;43.416;23.232;2022-10-16T14:04:50;101013.84;;;20.24;38.26
33697;BME280;20031;43.416;23.232;2022-10-16T14:07:28;101008.16;;;20.27;38.96
33697;BME280;20031;43.416;23.232;2022-10-16T14:10:01;101016.88;;;20.21;37.99
33697;BME280;20031;43.416;23.232;2022-10-16T14:12:27;101014.84;;;20.23;37.48
33697;BME280;20031;43.416;23.232;2022-10-16T14:14:54;101017.50;;;20.23;38.33
33697;BME280;20031;43.416;23.232;2022-10-16T14:17:27;101016.44;;;20.11;38.51
33697;BME280;20031;43.416;23.232;2022-10-16T14:19:55;101018.63;;;20.08;38.96
33697;BME280;20031;43.416;23.232;2022-10-16T14:22:36;101021.28;;;20.08;38.79
33697;BME280;20031;43.416;23.232;2022-10-16T14:27:45;101019.00;;;19.98;38.66